HISTORICAL SENSOR DATA

Sensor Data Report

DB LIVE
CURRENT TIME--:--:--
DEVICE NETWORK Gateway Status
13 ESP · realtime ~1s · history 60s
Weather WS-MOD-01
ONLINE
Actuator ACT-MOD-01
OFFLINE
Mainboard L3 MB-L3-01
ONLINE
Mainboard L5 MB-L5-01
ONLINE
Remote AC AC-REMOTE-01
ONLINE
PZEM L3-01 PWR-L3-01
OFFLINE
PZEM L3-02 PWR-L3-02
OFFLINE
PZEM L3-03 PWR-L3-03
OFFLINE
PZEM L3-04 PWR-L3-04
OFFLINE
PZEM L5-01 PWR-L5-01
ONLINE
PZEM L5-02 PWR-L5-02
ONLINE
PZEM L5-03 PWR-L5-03
OFFLINE
PZEM L5-04 PWR-L5-04
OFFLINE
REPORT FILTER

Periode & Sensor

DATABASE HISTORY
RESET
QUICK RANGE Hari ini 7 hari 30 hari
PERIODE08 Aug 2026sampai 06 Sep 2026
TOTAL DATA67,817sensor readings
MINIMUM-0.50sesuai filter
AVERAGE84.86sesuai filter
MAXIMUM32,564.20sesuai filter
REPORT RESULT

Data Sensor

08/08/2026 — 06/09/2026 EXPORT CSV
NOTANGGALWAKTUDEVICECHANNELSENSORVALUEUNIT
301 06/09/2026 23:55:00 MB-L3-01Mainboard Lantai 3 L3-RAD-02 Radiation 2 1.00 W/m²
302 06/09/2026 23:55:00 MB-L3-01Mainboard Lantai 3 L3-AI-05 Analog Input 5 3.12 V
303 06/09/2026 23:55:00 MB-L5-01Mainboard Lantai 5 L5-HFT-02 Heat Flow Temperature 2 23.00 °C
304 06/09/2026 23:55:00 MB-L3-01Mainboard Lantai 3 L3-LUX-02 Illuminance / LUX 2 0.20 lux
305 06/09/2026 23:55:00 PWR-L5-02Power Meter L5 PZEM 02 PZEM-L5-02-POWER PZEM L5-02 Active Power 0.00 W
306 06/09/2026 23:55:00 MB-L5-01Mainboard Lantai 5 L5-AI-02 Analog Input 2 3.05 V
307 06/09/2026 23:55:00 PWR-L5-01Power Meter L5 PZEM 01 PZEM-L5-01-VOLT PZEM L5-01 Voltage 224.60 V
308 06/09/2026 23:55:00 AC-REMOTE-01Remote AC AC-MODE AC Operating Mode 1.00 code
309 06/09/2026 23:55:00 MB-L3-01Mainboard Lantai 3 L3-SHT-01-T SHT20 1 Temperature 28.60 °C
310 06/09/2026 23:55:00 MB-L3-01Mainboard Lantai 3 L3-SHT-02-T SHT20 2 Temperature 29.00 °C
311 06/09/2026 23:55:00 PWR-L5-02Power Meter L5 PZEM 02 PZEM-L5-02-PF PZEM L5-02 Power Factor 0.00
312 06/09/2026 23:55:00 MB-L5-01Mainboard Lantai 5 L5-BGT-01 Black Globe Temperature 1 26.90 °C
313 06/09/2026 23:55:00 MB-L5-01Mainboard Lantai 5 L5-AI-05 Analog Input 5 3.05 V
314 06/09/2026 23:55:00 MB-L3-01Mainboard Lantai 3 L3-AI-03 Analog Input 3 3.12 V
315 06/09/2026 23:55:00 WS-MOD-01Weather Station Module WS-WIND Kecepatan Angin 5.10 m/s
316 06/09/2026 23:55:00 PWR-L5-01Power Meter L5 PZEM 01 PZEM-L5-01-CURR PZEM L5-01 Current 0.12 A
317 06/09/2026 23:55:00 MB-L5-01Mainboard Lantai 5 L5-ST-02 Surface Temperature 2 23.20 °C
318 06/09/2026 23:55:00 MB-L5-01Mainboard Lantai 5 L5-SHT-01-RH SHT20 1 Humidity 45.80 %RH
319 06/09/2026 23:55:00 PWR-L5-02Power Meter L5 PZEM 02 PZEM-L5-02-CURR PZEM L5-02 Current 0.00 A
320 06/09/2026 23:55:00 MB-L3-01Mainboard Lantai 3 L3-LUX-06 Illuminance / LUX 6 0.30 lux
321 06/09/2026 23:55:00 WS-MOD-01Weather Station Module WS-PRES Tekanan Udara 912.00 hPa
322 06/09/2026 23:55:00 MB-L5-01Mainboard Lantai 5 L5-SHT-02-T SHT20 2 Temperature 29.10 °C
323 06/09/2026 23:55:00 MB-L3-01Mainboard Lantai 3 L3-LUX-04 Illuminance / LUX 4 0.10 lux
324 06/09/2026 23:55:00 AC-REMOTE-01Remote AC AC-SETPOINT AC Set Temperature 23.00 °C
325 06/09/2026 23:55:00 PWR-L5-01Power Meter L5 PZEM 01 PZEM-L5-01-POWER PZEM L5-01 Active Power 10.60 W
326 06/09/2026 23:55:00 MB-L3-01Mainboard Lantai 3 L3-AI-01 Analog Input 1 3.12 V
327 06/09/2026 23:55:00 MB-L5-01Mainboard Lantai 5 L5-SHT-03-RH SHT20 3 Humidity 45.60 %RH
328 06/09/2026 23:55:00 MB-L3-01Mainboard Lantai 3 L3-SHT-02-RH SHT20 2 Humidity 44.90 %RH
329 06/09/2026 23:55:00 MB-L5-01Mainboard Lantai 5 L5-SHT-01-T SHT20 1 Temperature 28.80 °C
330 06/09/2026 23:55:00 MB-L3-01Mainboard Lantai 3 L3-SHT-03-RH SHT20 3 Humidity 45.10 %RH
331 06/09/2026 23:55:00 MB-L5-01Mainboard Lantai 5 L5-LUX-03 Illuminance / LUX 3 0.10 lux
332 06/09/2026 23:55:00 MB-L5-01Mainboard Lantai 5 L5-SHT-03-T SHT20 3 Temperature 28.90 °C
333 06/09/2026 23:55:00 MB-L3-01Mainboard Lantai 3 L3-AI-06 Analog Input 6 3.12 V
334 06/09/2026 23:55:00 MB-L5-01Mainboard Lantai 5 L5-AI-03 Analog Input 3 3.05 V
335 06/09/2026 23:55:00 MB-L5-01Mainboard Lantai 5 L5-SHT-02-RH SHT20 2 Humidity 45.10 %RH
336 06/09/2026 23:55:00 PWR-L5-02Power Meter L5 PZEM 02 PZEM-L5-02-FREQ PZEM L5-02 Frequency 50.00 Hz
337 06/09/2026 23:54:00 MB-L5-01Mainboard Lantai 5 L5-AI-01 Analog Input 1 3.05 V
338 06/09/2026 23:54:00 MB-L5-01Mainboard Lantai 5 L5-LUX-02 Illuminance / LUX 2 0.10 lux
339 06/09/2026 23:54:00 PWR-L5-01Power Meter L5 PZEM 01 PZEM-L5-01-FREQ PZEM L5-01 Frequency 50.00 Hz
340 06/09/2026 23:54:00 PWR-L5-02Power Meter L5 PZEM 02 PZEM-L5-02-ENERGY PZEM L5-02 Energy 0.04 kWh
341 06/09/2026 23:54:00 MB-L3-01Mainboard Lantai 3 L3-LUX-01 Illuminance / LUX 1 0.20 lux
342 06/09/2026 23:54:00 MB-L5-01Mainboard Lantai 5 L5-LUX-06 Illuminance / LUX 6 0.10 lux
343 06/09/2026 23:54:00 MB-L3-01Mainboard Lantai 3 L3-AI-02 Analog Input 2 3.12 V
344 06/09/2026 23:54:00 MB-L5-01Mainboard Lantai 5 L5-AI-04 Analog Input 4 3.05 V
345 06/09/2026 23:54:00 MB-L3-01Mainboard Lantai 3 L3-SHT-01-RH SHT20 1 Humidity 45.70 %RH
346 06/09/2026 23:54:00 MB-L3-01Mainboard Lantai 3 L3-LUX-03 Illuminance / LUX 3 0.20 lux
347 06/09/2026 23:54:00 PWR-L5-01Power Meter L5 PZEM 01 PZEM-L5-01-PF PZEM L5-01 Power Factor 0.39
348 06/09/2026 23:54:00 MB-L3-01Mainboard Lantai 3 L3-SHT-03-T SHT20 3 Temperature 29.10 °C
349 06/09/2026 23:54:00 WS-MOD-01Weather Station Module WS-TEMP Suhu Udara 19.60 °C
350 06/09/2026 23:54:00 AC-REMOTE-01Remote AC AC-FAN AC Fan Speed 0.00 code
351 06/09/2026 23:54:00 MB-L5-01Mainboard Lantai 5 L5-BGT-03 Black Globe Temperature 3 26.50 °C
352 06/09/2026 23:54:00 MB-L5-01Mainboard Lantai 5 L5-LUX-05 Illuminance / LUX 5 0.10 lux
353 06/09/2026 23:54:00 MB-L5-01Mainboard Lantai 5 L5-ST-01 Surface Temperature 1 24.10 °C
354 06/09/2026 23:54:00 MB-L5-01Mainboard Lantai 5 L5-LUX-01 Illuminance / LUX 1 0.00 lux
355 06/09/2026 23:54:00 WS-MOD-01Weather Station Module WS-DIR Arah Angin 95.80 °
356 06/09/2026 23:54:00 MB-L3-01Mainboard Lantai 3 L3-RAD-02 Radiation 2 1.00 W/m²
357 06/09/2026 23:54:00 MB-L3-01Mainboard Lantai 3 L3-AI-05 Analog Input 5 3.12 V
358 06/09/2026 23:54:00 MB-L5-01Mainboard Lantai 5 L5-HFT-02 Heat Flow Temperature 2 23.10 °C
359 06/09/2026 23:54:00 MB-L3-01Mainboard Lantai 3 L3-LUX-02 Illuminance / LUX 2 0.20 lux
360 06/09/2026 23:54:00 PWR-L5-02Power Meter L5 PZEM 02 PZEM-L5-02-POWER PZEM L5-02 Active Power 0.00 W
361 06/09/2026 23:54:00 MB-L5-01Mainboard Lantai 5 L5-AI-02 Analog Input 2 3.05 V
362 06/09/2026 23:54:00 PWR-L5-01Power Meter L5 PZEM 01 PZEM-L5-01-VOLT PZEM L5-01 Voltage 224.60 V
363 06/09/2026 23:54:00 AC-REMOTE-01Remote AC AC-MODE AC Operating Mode 1.00 code
364 06/09/2026 23:54:00 MB-L3-01Mainboard Lantai 3 L3-SHT-01-T SHT20 1 Temperature 28.70 °C
365 06/09/2026 23:54:00 MB-L3-01Mainboard Lantai 3 L3-SHT-02-T SHT20 2 Temperature 29.00 °C
366 06/09/2026 23:54:00 PWR-L5-02Power Meter L5 PZEM 02 PZEM-L5-02-PF PZEM L5-02 Power Factor 0.00
367 06/09/2026 23:54:00 MB-L5-01Mainboard Lantai 5 L5-BGT-01 Black Globe Temperature 1 26.80 °C
368 06/09/2026 23:54:00 MB-L5-01Mainboard Lantai 5 L5-AI-05 Analog Input 5 3.05 V
369 06/09/2026 23:54:00 MB-L3-01Mainboard Lantai 3 L3-AI-03 Analog Input 3 3.12 V
370 06/09/2026 23:54:00 WS-MOD-01Weather Station Module WS-WIND Kecepatan Angin 4.10 m/s
371 06/09/2026 23:54:00 PWR-L5-01Power Meter L5 PZEM 01 PZEM-L5-01-CURR PZEM L5-01 Current 0.12 A
372 06/09/2026 23:54:00 MB-L5-01Mainboard Lantai 5 L5-ST-02 Surface Temperature 2 23.30 °C
373 06/09/2026 23:54:00 MB-L5-01Mainboard Lantai 5 L5-SHT-01-RH SHT20 1 Humidity 45.80 %RH
374 06/09/2026 23:54:00 PWR-L5-02Power Meter L5 PZEM 02 PZEM-L5-02-CURR PZEM L5-02 Current 0.00 A
375 06/09/2026 23:54:00 MB-L3-01Mainboard Lantai 3 L3-LUX-06 Illuminance / LUX 6 0.30 lux
376 06/09/2026 23:54:00 WS-MOD-01Weather Station Module WS-PRES Tekanan Udara 912.00 hPa
377 06/09/2026 23:54:00 MB-L5-01Mainboard Lantai 5 L5-SHT-02-T SHT20 2 Temperature 29.00 °C
378 06/09/2026 23:54:00 MB-L3-01Mainboard Lantai 3 L3-LUX-04 Illuminance / LUX 4 0.10 lux
379 06/09/2026 23:54:00 AC-REMOTE-01Remote AC AC-SETPOINT AC Set Temperature 23.00 °C
380 06/09/2026 23:54:00 PWR-L5-01Power Meter L5 PZEM 01 PZEM-L5-01-POWER PZEM L5-01 Active Power 10.40 W
381 06/09/2026 23:54:00 MB-L3-01Mainboard Lantai 3 L3-AI-01 Analog Input 1 3.12 V
382 06/09/2026 23:54:00 MB-L5-01Mainboard Lantai 5 L5-SHT-03-RH SHT20 3 Humidity 45.50 %RH
383 06/09/2026 23:54:00 MB-L3-01Mainboard Lantai 3 L3-SHT-02-RH SHT20 2 Humidity 44.80 %RH
384 06/09/2026 23:54:00 MB-L5-01Mainboard Lantai 5 L5-SHT-01-T SHT20 1 Temperature 28.70 °C
385 06/09/2026 23:54:00 MB-L3-01Mainboard Lantai 3 L3-SHT-03-RH SHT20 3 Humidity 45.10 %RH
386 06/09/2026 23:54:00 MB-L5-01Mainboard Lantai 5 L5-LUX-03 Illuminance / LUX 3 0.10 lux
387 06/09/2026 23:54:00 MB-L5-01Mainboard Lantai 5 L5-SHT-03-T SHT20 3 Temperature 28.90 °C
388 06/09/2026 23:54:00 MB-L3-01Mainboard Lantai 3 L3-AI-06 Analog Input 6 3.12 V
389 06/09/2026 23:54:00 MB-L5-01Mainboard Lantai 5 L5-AI-03 Analog Input 3 3.05 V
390 06/09/2026 23:54:00 MB-L5-01Mainboard Lantai 5 L5-SHT-02-RH SHT20 2 Humidity 45.20 %RH
391 06/09/2026 23:54:00 PWR-L5-02Power Meter L5 PZEM 02 PZEM-L5-02-FREQ PZEM L5-02 Frequency 50.00 Hz
392 06/09/2026 23:54:00 MB-L3-01Mainboard Lantai 3 L3-RAD-01 Radiation 1 1.00 W/m²
393 06/09/2026 23:54:00 PWR-L5-01Power Meter L5 PZEM 01 PZEM-L5-01-ENERGY PZEM L5-01 Energy 0.06 kWh
394 06/09/2026 23:54:00 MB-L5-01Mainboard Lantai 5 L5-BGT-02 Black Globe Temperature 2 26.80 °C
395 06/09/2026 23:54:00 PWR-L5-02Power Meter L5 PZEM 02 PZEM-L5-02-VOLT PZEM L5-02 Voltage 224.60 V
396 06/09/2026 23:54:00 MB-L5-01Mainboard Lantai 5 L5-AI-06 Analog Input 6 3.05 V
397 06/09/2026 23:54:00 AC-REMOTE-01Remote AC AC-POWER AC Power State 1.00 state
398 06/09/2026 23:54:00 MB-L3-01Mainboard Lantai 3 L3-AI-04 Analog Input 4 3.12 V
399 06/09/2026 23:54:00 MB-L3-01Mainboard Lantai 3 L3-LUX-05 Illuminance / LUX 5 0.30 lux
400 06/09/2026 23:54:00 MB-L5-01Mainboard Lantai 5 L5-RAD-02 Radiation 2 1.00 W/m²
Menampilkan maksimal 100 data per halaman